createdAt,value
2023-03-02T00:01:39.959Z,-0.20
2023-03-02T00:04:12.001Z,0.40
2023-03-02T00:06:39.938Z,0.70
2023-03-02T00:09:07.363Z,1.00
2023-03-02T00:11:38.012Z,1.30
2023-03-02T00:14:06.168Z,1.50
2023-03-02T00:16:34.792Z,1.60
2023-03-02T00:19:02.548Z,1.70
2023-03-02T00:21:29.712Z,1.80
2023-03-02T00:23:56.869Z,1.90
2023-03-02T00:26:24.042Z,2.00
2023-03-02T00:28:51.858Z,2.10
2023-03-02T00:31:19.061Z,2.20
2023-03-02T00:33:46.758Z,2.30
2023-03-02T00:36:18.371Z,2.40
2023-03-02T00:38:45.998Z,2.40
2023-03-02T00:41:14.011Z,2.40
2023-03-02T00:43:42.304Z,2.50
2023-03-02T00:46:15.441Z,2.50
2023-03-02T00:48:43.207Z,2.60
2023-03-02T00:51:11.395Z,2.60
2023-03-02T00:53:39.209Z,2.70
2023-03-02T00:56:07.851Z,2.70
2023-03-02T00:58:35.856Z,2.80
2023-03-02T01:01:09.900Z,2.80
2023-03-02T01:03:38.260Z,1.90
2023-03-02T01:06:53.259Z,0.40
2023-03-02T01:09:20.282Z,-1.20
2023-03-02T01:11:47.632Z,-2.10
2023-03-02T01:14:15.643Z,-2.60
2023-03-02T01:20:30.320Z,-3.10
2023-03-02T01:22:57.819Z,-3.30
2023-03-02T01:25:25.193Z,-3.50
2023-03-02T01:27:52.497Z,-3.60
2023-03-02T01:30:19.753Z,-3.70
2023-03-02T01:32:47.093Z,-3.90
2023-03-02T01:35:14.777Z,-4.00
2023-03-02T01:37:41.971Z,-4.10
2023-03-02T01:40:11.392Z,-4.10
2023-03-02T01:42:45.816Z,-4.20
2023-03-02T01:45:52.354Z,-4.20
2023-03-02T01:48:29.831Z,-4.30
2023-03-02T01:51:40.268Z,-4.30
2023-03-02T01:54:17.344Z,-4.30
2023-03-02T01:56:45.958Z,-4.30
2023-03-02T01:59:25.747Z,-4.40
2023-03-02T02:02:26.408Z,-4.50
2023-03-02T02:04:59.692Z,-4.50
2023-03-02T02:10:37.649Z,-1.90
2023-03-02T02:13:17.098Z,-2.80
2023-03-02T02:15:44.808Z,-3.10
2023-03-02T02:18:27.871Z,-3.40
2023-03-02T02:20:56.657Z,-3.60
2023-03-02T02:23:47.789Z,-3.70
2023-03-02T02:26:20.893Z,-3.70
2023-03-02T02:29:33.097Z,-3.70
2023-03-02T02:32:34.212Z,-3.80
2023-03-02T02:35:31.546Z,-3.70
2023-03-02T02:38:26.112Z,-3.90
2023-03-02T02:41:03.295Z,-3.50
2023-03-02T02:43:32.376Z,-2.60
2023-03-02T02:46:03.693Z,-1.70
2023-03-02T02:48:41.736Z,-1.00
2023-03-02T02:51:27.253Z,-0.20
2023-03-02T02:54:00.955Z,0.30
2023-03-02T02:56:42.104Z,0.80
2023-03-02T02:59:37.899Z,1.10
2023-03-02T03:02:39.576Z,1.20
2023-03-02T03:05:17.061Z,1.40
2023-03-02T03:07:44.611Z,1.60
2023-03-02T03:10:28.818Z,1.70
2023-03-02T03:12:59.051Z,1.80
2023-03-02T03:15:29.480Z,1.90
2023-03-02T03:18:00.055Z,2.00
2023-03-02T03:23:20.856Z,2.20
2023-03-02T03:25:54.061Z,2.20
2023-03-02T03:28:21.300Z,2.30
2023-03-02T03:30:48.574Z,2.40
2023-03-02T03:39:58.743Z,2.50
2023-03-02T03:42:47.342Z,2.60
2023-03-02T03:45:17.641Z,2.70
2023-03-02T03:47:50.362Z,2.70
2023-03-02T03:50:35.385Z,2.70
2023-03-02T03:53:05.449Z,2.70
2023-03-02T03:55:32.714Z,2.70
2023-03-02T03:58:02.705Z,2.80
2023-03-02T04:00:29.863Z,2.80
2023-03-02T04:02:57.150Z,2.80
2023-03-02T04:05:31.656Z,2.90
2023-03-02T04:08:02.457Z,2.90
2023-03-02T04:10:40.018Z,2.90
2023-03-02T04:13:32.154Z,2.90
2023-03-02T04:15:59.353Z,2.90
2023-03-02T04:18:29.636Z,2.90
2023-03-02T04:21:03.012Z,2.90
2023-03-02T04:23:30.021Z,2.90
2023-03-02T04:26:01.491Z,2.90
2023-03-02T04:28:37.671Z,2.90
2023-03-02T04:31:05.076Z,2.90
2023-03-02T04:34:02.537Z,3.00
2023-03-02T04:36:45.391Z,3.00
2023-03-02T04:39:46.191Z,3.00
2023-03-02T04:42:24.132Z,3.00
2023-03-02T04:44:51.272Z,3.00
2023-03-02T04:47:26.317Z,3.00
2023-03-02T04:49:57.954Z,3.00
2023-03-02T04:52:40.362Z,3.00
2023-03-02T04:55:26.561Z,3.00
2023-03-02T04:58:03.933Z,3.00
2023-03-02T05:00:34.584Z,3.00
2023-03-02T05:03:03.177Z,3.00
2023-03-02T05:05:51.708Z,3.10
2023-03-02T05:11:34.355Z,3.10
2023-03-02T05:14:07.436Z,3.10
2023-03-02T05:17:01.552Z,3.10
2023-03-02T05:19:50.111Z,3.10
2023-03-02T05:22:35.550Z,3.20
2023-03-02T05:25:06.434Z,3.20
2023-03-02T05:31:05.122Z,3.30
2023-03-02T05:33:35.354Z,3.30
2023-03-02T05:36:02.856Z,3.40
2023-03-02T05:38:46.476Z,3.40
2023-03-02T05:41:38.240Z,3.40
2023-03-02T05:44:09.991Z,3.40
2023-03-02T05:46:46.082Z,3.40
2023-03-02T05:49:19.320Z,3.40
2023-03-02T05:51:46.478Z,3.40
2023-03-02T05:54:58.524Z,3.40
2023-03-02T05:57:44.489Z,3.40
2023-03-02T06:00:13.810Z,3.40
2023-03-02T06:03:21.456Z,3.40
2023-03-02T06:05:52.623Z,3.40
2023-03-02T06:08:41.281Z,3.40
2023-03-02T06:11:11.730Z,3.50
2023-03-02T06:14:00.624Z,3.50
2023-03-02T06:16:31.012Z,3.50
2023-03-02T06:19:14.595Z,3.50
2023-03-02T06:21:49.346Z,3.60
2023-03-02T06:24:16.395Z,3.60
2023-03-02T06:26:55.808Z,3.60
2023-03-02T06:29:23.576Z,3.60
2023-03-02T06:31:50.938Z,3.60
2023-03-02T06:34:30.452Z,3.70
2023-03-02T06:36:58.457Z,3.70
2023-03-02T06:39:38.482Z,3.80
2023-03-02T06:42:36.234Z,3.90
2023-03-02T06:45:45.562Z,3.90
2023-03-02T06:48:28.596Z,3.90
2023-03-02T06:50:58.747Z,4.00
2023-03-02T06:53:49.517Z,4.00
2023-03-02T06:56:16.555Z,4.00
2023-03-02T06:58:59.653Z,4.10
2023-03-02T07:01:38.918Z,4.10
2023-03-02T07:04:08.748Z,4.20
2023-03-02T07:06:36.113Z,4.20
2023-03-02T07:12:06.276Z,4.30
2023-03-02T07:14:36.765Z,4.40
2023-03-02T07:17:07.406Z,4.50
2023-03-02T07:19:34.608Z,4.60
2023-03-02T07:22:01.759Z,4.60
2023-03-02T07:24:29.073Z,4.60
2023-03-02T07:27:05.871Z,4.70
2023-03-02T07:29:33.220Z,4.80
2023-03-02T07:32:03.621Z,4.90
2023-03-02T07:34:30.683Z,5.00
2023-03-02T07:36:58.454Z,5.00
2023-03-02T07:39:25.680Z,5.00
2023-03-02T07:42:00.936Z,5.10
2023-03-02T07:44:28.870Z,5.20
2023-03-02T07:46:56.584Z,5.20
2023-03-02T07:49:23.642Z,5.20
2023-03-02T07:51:50.826Z,5.20
2023-03-02T07:54:27.924Z,5.20
2023-03-02T07:56:55.146Z,5.20
2023-03-02T07:59:22.551Z,5.30
2023-03-02T08:01:50.209Z,5.40
2023-03-02T08:04:17.307Z,5.40
2023-03-02T08:06:44.307Z,5.50
2023-03-02T08:09:11.474Z,5.60
2023-03-02T08:11:38.730Z,5.60
2023-03-02T08:14:06.030Z,5.80
2023-03-02T08:16:33.201Z,5.90
2023-03-02T08:19:00.792Z,6.00
2023-03-02T08:21:52.044Z,5.50
2023-03-02T08:24:22.437Z,3.70
2023-03-02T08:26:49.596Z,1.90
2023-03-02T08:29:16.884Z,0.80
2023-03-02T08:31:43.992Z,0.10
2023-03-02T08:34:12.261Z,-0.50
2023-03-02T08:36:39.625Z,-0.80
2023-03-02T08:39:06.616Z,-1.10
2023-03-02T08:41:35.265Z,-1.30
2023-03-02T08:44:02.548Z,-1.50
2023-03-02T08:46:30.879Z,-1.70
2023-03-02T08:48:57.878Z,-1.80
2023-03-02T08:51:26.959Z,-1.80
2023-03-02T08:53:56.560Z,-1.90
2023-03-02T08:56:32.913Z,-1.90
2023-03-02T08:59:03.527Z,-1.90
2023-03-02T09:01:33.608Z,-1.80
2023-03-02T09:04:03.007Z,-1.50
2023-03-02T09:06:32.807Z,-1.10
2023-03-02T09:09:00.024Z,-0.70
2023-03-02T09:11:27.338Z,-0.50
2023-03-02T09:13:55.474Z,-0.30
2023-03-02T09:16:24.546Z,-0.10
2023-03-02T09:18:52.829Z,0.10
2023-03-02T09:21:23.462Z,0.30
2023-03-02T09:23:54.395Z,0.80
2023-03-02T09:26:21.810Z,1.60
2023-03-02T09:28:48.833Z,2.30
2023-03-02T09:31:15.853Z,3.00
2023-03-02T09:33:42.987Z,3.60
2023-03-02T09:36:13.297Z,4.00
2023-03-02T09:38:43.151Z,4.50
2023-03-02T09:41:33.322Z,4.90
2023-03-02T09:44:40.817Z,5.30
2023-03-02T09:47:35.796Z,5.70
2023-03-02T09:50:38.001Z,6.00
2023-03-02T09:53:17.153Z,6.20
2023-03-02T09:55:51.190Z,6.50
2023-03-02T09:58:21.051Z,6.80
2023-03-02T10:00:49.572Z,6.90
2023-03-02T10:03:27.469Z,7.00
2023-03-02T10:05:55.667Z,7.10
2023-03-02T10:08:26.209Z,7.10
2023-03-02T10:11:40.410Z,7.30
2023-03-02T10:14:42.350Z,7.30
2023-03-02T10:17:21.390Z,7.40
2023-03-02T10:19:56.450Z,7.30
2023-03-02T10:22:32.017Z,7.40
2023-03-02T10:25:08.235Z,7.40
2023-03-02T10:27:39.026Z,7.30
2023-03-02T10:30:30.020Z,7.40
2023-03-02T10:33:04.477Z,7.40
2023-03-02T10:35:32.243Z,7.40
2023-03-02T10:38:21.054Z,7.40
2023-03-02T10:41:01.076Z,7.50
2023-03-02T10:43:47.602Z,7.60
2023-03-02T10:46:18.281Z,7.80
2023-03-02T10:48:53.147Z,7.90
2023-03-02T10:51:32.774Z,8.10
2023-03-02T10:54:26.131Z,8.20
2023-03-02T10:56:56.228Z,8.40
2023-03-02T10:59:27.071Z,8.70
2023-03-02T11:02:15.551Z,8.90
2023-03-02T11:04:42.718Z,9.20
2023-03-02T11:07:21.176Z,9.40
2023-03-02T11:10:04.916Z,9.60
2023-03-02T11:12:37.427Z,9.70
2023-03-02T11:15:19.379Z,9.70
2023-03-02T11:17:50.928Z,9.70
2023-03-02T11:20:26.221Z,9.70
2023-03-02T11:23:26.443Z,9.70
2023-03-02T11:25:58.186Z,9.60
2023-03-02T11:28:39.108Z,9.60
2023-03-02T11:37:57.625Z,9.70
2023-03-02T11:40:47.293Z,9.70
2023-03-02T11:43:15.039Z,9.70
2023-03-02T11:46:06.675Z,9.70
2023-03-02T11:48:57.768Z,9.70
2023-03-02T11:51:29.186Z,9.70
2023-03-02T11:54:06.870Z,9.70
2023-03-02T11:56:47.430Z,9.70
2023-03-02T11:59:38.340Z,9.60
2023-03-02T12:02:05.913Z,9.60
2023-03-02T12:07:34.949Z,9.60
2023-03-02T12:10:22.793Z,9.60
2023-03-02T12:13:27.834Z,9.70
2023-03-02T12:15:56.604Z,9.70
2023-03-02T12:18:47.167Z,9.70
2023-03-02T12:21:39.661Z,9.70
2023-03-02T12:24:27.901Z,9.70
2023-03-02T12:27:09.293Z,9.80
2023-03-02T12:29:47.292Z,9.80
2023-03-02T12:32:28.105Z,9.90
2023-03-02T12:35:03.347Z,10.00
2023-03-02T12:37:35.058Z,10.10
2023-03-02T12:40:36.015Z,10.20
2023-03-02T12:43:34.156Z,10.20
2023-03-02T12:46:21.378Z,10.20
2023-03-02T12:49:01.071Z,10.30
2023-03-02T12:51:31.617Z,10.30
2023-03-02T12:54:06.942Z,10.20
2023-03-02T12:56:40.411Z,10.20
2023-03-02T12:59:07.541Z,10.20
2023-03-02T13:02:03.587Z,10.10
2023-03-02T13:04:30.673Z,10.00
2023-03-02T13:06:58.252Z,10.00
2023-03-02T13:09:25.233Z,10.00
2023-03-02T13:11:55.375Z,9.80
2023-03-02T13:14:27.509Z,9.80
2023-03-02T13:17:00.202Z,9.80
2023-03-02T13:19:39.793Z,9.70
2023-03-02T13:22:08.715Z,9.80
2023-03-02T13:24:58.079Z,9.70
2023-03-02T13:27:38.787Z,9.70
2023-03-02T13:30:14.553Z,9.70
2023-03-02T13:32:48.136Z,9.50
2023-03-02T13:35:38.977Z,9.50
2023-03-02T13:38:20.926Z,9.60
2023-03-02T13:40:56.458Z,9.60
2023-03-02T13:43:41.328Z,9.80
2023-03-02T13:46:27.619Z,9.90
2023-03-02T13:49:11.068Z,9.80
2023-03-02T13:51:42.600Z,9.80
2023-03-02T13:54:43.578Z,9.80
2023-03-02T13:57:46.081Z,9.90
2023-03-02T14:00:46.024Z,10.00
2023-03-02T14:03:24.189Z,10.00
2023-03-02T14:05:55.573Z,10.00
2023-03-02T14:08:22.800Z,10.00
2023-03-02T14:10:52.632Z,10.00
2023-03-02T14:13:23.903Z,10.00
2023-03-02T14:16:00.131Z,10.00
2023-03-02T14:18:37.873Z,10.00
2023-03-02T14:21:28.161Z,10.00
2023-03-02T14:23:59.303Z,9.80
2023-03-02T14:26:50.318Z,9.60
2023-03-02T14:29:44.144Z,9.60
2023-03-02T14:32:53.728Z,9.60
2023-03-02T14:35:37.253Z,9.70
2023-03-02T14:38:05.111Z,9.70
2023-03-02T14:43:35.393Z,9.50
2023-03-02T14:46:02.764Z,9.40
2023-03-02T14:48:35.645Z,9.40
2023-03-02T14:51:05.776Z,9.40
2023-03-02T14:53:35.537Z,9.40
2023-03-02T14:59:30.565Z,9.40
2023-03-02T15:02:00.411Z,9.40
2023-03-02T15:04:31.290Z,9.30
2023-03-02T15:06:58.516Z,9.20
2023-03-02T15:09:25.951Z,9.20
2023-03-02T15:14:53.230Z,9.00
2023-03-02T15:17:25.351Z,7.90
2023-03-02T15:19:52.591Z,5.70
2023-03-02T15:22:29.307Z,4.00
2023-03-02T15:24:56.773Z,2.80
2023-03-02T15:27:30.777Z,1.70
2023-03-02T15:29:57.917Z,0.90
2023-03-02T15:32:25.344Z,0.40
2023-03-02T15:34:52.396Z,0.70
2023-03-02T15:37:19.762Z,1.40
2023-03-02T15:39:47.377Z,2.00
2023-03-02T15:42:45.039Z,2.70
2023-03-02T15:45:12.473Z,2.50
2023-03-02T15:47:39.966Z,1.80
2023-03-02T15:50:07.703Z,1.50
2023-03-02T15:52:34.987Z,1.10
2023-03-02T15:55:02.545Z,1.10
2023-03-02T16:00:29.610Z,1.10
2023-03-02T16:02:56.662Z,1.20
2023-03-02T16:05:23.772Z,1.80
2023-03-02T16:07:51.284Z,2.50
2023-03-02T16:10:21.751Z,3.40
2023-03-02T16:12:49.319Z,4.20
2023-03-02T16:15:19.791Z,4.70
2023-03-02T16:17:47.151Z,5.20
2023-03-02T16:20:17.603Z,5.50
2023-03-02T16:22:45.051Z,5.70
2023-03-02T16:25:31.103Z,5.80
2023-03-02T16:28:02.444Z,5.90
2023-03-02T16:30:31.107Z,6.00
2023-03-02T16:33:03.182Z,6.10
2023-03-02T16:35:41.122Z,6.10
2023-03-02T16:38:10.162Z,6.20
2023-03-02T16:40:40.208Z,6.20
2023-03-02T16:43:26.935Z,6.20
2023-03-02T16:45:54.737Z,6.20
2023-03-02T16:48:21.912Z,6.30
2023-03-02T16:50:56.926Z,6.30
2023-03-02T16:53:24.302Z,6.20
2023-03-02T16:55:51.572Z,6.30
2023-03-02T16:58:21.713Z,6.30
2023-03-02T17:00:56.257Z,6.30
2023-03-02T17:03:26.592Z,6.30
2023-03-02T17:05:53.872Z,6.30
2023-03-02T17:08:21.162Z,6.30
2023-03-02T17:10:48.188Z,6.30
2023-03-02T17:13:18.716Z,6.30
2023-03-02T17:15:59.460Z,6.30
2023-03-02T17:18:30.958Z,6.30
2023-03-02T17:20:59.667Z,6.30
2023-03-02T17:23:27.991Z,6.30
2023-03-02T17:25:56.348Z,6.30
2023-03-02T17:28:23.935Z,6.30
2023-03-02T17:30:51.109Z,6.30
2023-03-02T17:33:21.553Z,6.30
2023-03-02T17:35:49.426Z,6.30
2023-03-02T17:38:17.094Z,6.40
2023-03-02T17:40:45.191Z,6.30
2023-03-02T17:43:41.547Z,6.40
2023-03-02T17:46:15.087Z,6.40
2023-03-02T17:48:43.243Z,6.40
2023-03-02T17:51:12.324Z,6.40
2023-03-02T17:53:39.503Z,6.40
2023-03-02T17:56:31.182Z,6.40
2023-03-02T17:59:05.534Z,6.40
2023-03-02T18:01:33.921Z,6.40
2023-03-02T18:04:01.118Z,6.40
2023-03-02T18:06:29.691Z,6.40
2023-03-02T18:08:56.731Z,6.30
2023-03-02T18:11:25.708Z,6.40
2023-03-02T18:13:56.866Z,6.30
2023-03-02T18:16:26.085Z,6.30
2023-03-02T18:18:54.134Z,6.30
2023-03-02T18:21:28.003Z,6.20
2023-03-02T18:23:58.593Z,6.10
2023-03-02T18:26:31.950Z,6.20
2023-03-02T18:29:05.447Z,6.20
2023-03-02T18:31:34.811Z,6.10
2023-03-02T18:34:02.830Z,6.10
2023-03-02T18:36:39.582Z,6.00
2023-03-02T18:39:09.706Z,6.00
2023-03-02T18:41:43.185Z,6.00
2023-03-02T18:44:10.726Z,5.90
2023-03-02T18:46:38.155Z,5.90
2023-03-02T18:49:05.185Z,5.80
2023-03-02T18:51:32.649Z,5.80
2023-03-02T18:54:06.051Z,5.80
2023-03-02T18:56:39.461Z,5.80
2023-03-02T18:59:09.010Z,5.80
2023-03-02T19:01:39.759Z,5.80
2023-03-02T19:04:07.188Z,5.70
2023-03-02T19:07:00.142Z,5.70
2023-03-02T19:10:08.717Z,5.70
2023-03-02T19:12:35.744Z,5.60
2023-03-02T19:15:04.511Z,5.60
2023-03-02T19:17:32.058Z,5.60
2023-03-02T19:19:59.428Z,5.60
2023-03-02T19:22:26.631Z,5.60
2023-03-02T19:24:53.920Z,5.60
2023-03-02T19:27:27.151Z,5.60
2023-03-02T19:29:54.654Z,5.60
2023-03-02T19:32:25.448Z,5.60
2023-03-02T19:34:52.814Z,5.60
2023-03-02T19:37:20.099Z,5.60
2023-03-02T19:39:47.539Z,5.50
2023-03-02T19:42:14.788Z,5.60
2023-03-02T19:44:41.832Z,5.60
2023-03-02T19:47:08.868Z,5.10
2023-03-02T19:49:37.765Z,3.60
2023-03-02T19:52:05.568Z,2.50
2023-03-02T19:54:32.663Z,1.90
2023-03-02T19:57:00.269Z,1.60
2023-03-02T19:59:27.432Z,1.20
2023-03-02T20:01:55.302Z,0.80
2023-03-02T20:04:22.923Z,0.50
2023-03-02T20:06:50.668Z,0.80
2023-03-02T20:09:24.746Z,1.30
2023-03-02T20:11:52.187Z,1.90
2023-03-02T20:14:33.510Z,2.50
2023-03-02T20:17:05.180Z,3.00
2023-03-02T20:19:32.954Z,3.40
2023-03-02T20:21:59.950Z,3.70
2023-03-02T20:24:27.332Z,3.80
2023-03-02T20:26:57.080Z,4.00
2023-03-02T20:29:24.725Z,4.20
2023-03-02T20:31:51.927Z,4.30
2023-03-02T20:37:35.342Z,4.60
2023-03-02T20:40:04.498Z,4.70
2023-03-02T20:42:34.083Z,4.80
2023-03-02T20:45:02.313Z,4.90
2023-03-02T20:47:30.571Z,4.90
2023-03-02T20:49:57.720Z,5.00
2023-03-02T20:52:25.284Z,5.00
2023-03-02T20:54:52.743Z,5.00
2023-03-02T20:57:22.124Z,5.10
2023-03-02T20:59:49.989Z,5.10
2023-03-02T21:02:19.624Z,5.10
2023-03-02T21:04:47.764Z,5.20
2023-03-02T21:07:15.463Z,5.20
2023-03-02T21:09:44.083Z,5.20
2023-03-02T21:12:11.970Z,5.20
2023-03-02T21:14:41.148Z,5.20
2023-03-02T21:17:09.198Z,5.20
2023-03-02T21:19:36.438Z,5.20
2023-03-02T21:22:04.686Z,5.20
2023-03-02T21:24:32.074Z,5.20
2023-03-02T21:27:00.710Z,5.20
2023-03-02T21:29:28.986Z,5.30
2023-03-02T21:31:56.611Z,5.30
2023-03-02T21:34:23.703Z,5.30
2023-03-02T21:36:56.937Z,5.30
2023-03-02T21:39:24.315Z,5.30
2023-03-02T21:41:52.361Z,5.30
2023-03-02T21:44:20.259Z,5.30
2023-03-02T21:46:49.185Z,5.30
2023-03-02T21:49:19.190Z,5.30
2023-03-02T21:51:48.969Z,5.30
2023-03-02T21:54:16.873Z,5.30
2023-03-02T21:56:44.593Z,5.40
2023-03-02T21:59:12.398Z,5.40
2023-03-02T22:01:39.852Z,5.40
2023-03-02T22:04:07.821Z,5.40
2023-03-02T22:06:35.684Z,5.40
2023-03-02T22:09:04.173Z,5.40
2023-03-02T22:11:37.907Z,5.40
2023-03-02T22:14:16.094Z,5.40
2023-03-02T22:16:47.810Z,5.40
2023-03-02T22:19:26.267Z,5.30
2023-03-02T22:21:56.214Z,5.30
2023-03-02T22:24:31.657Z,5.20
2023-03-02T22:27:19.227Z,5.20
2023-03-02T22:29:47.720Z,5.30
2023-03-02T22:32:19.108Z,4.40
2023-03-02T22:34:48.855Z,2.60
2023-03-02T22:37:18.844Z,1.10
2023-03-02T22:39:47.104Z,0.00
2023-03-02T22:42:20.349Z,-0.70
2023-03-02T22:44:58.835Z,-1.10
2023-03-02T22:47:26.156Z,-1.40
2023-03-02T22:50:00.708Z,-1.60
2023-03-02T22:52:39.396Z,-1.70
2023-03-02T22:55:35.532Z,-1.70
2023-03-02T22:58:30.615Z,-1.80
2023-03-02T23:00:59.497Z,-1.80
2023-03-02T23:03:44.807Z,-1.80
2023-03-02T23:06:24.899Z,-1.70
2023-03-02T23:08:54.090Z,-1.70
2023-03-02T23:11:23.210Z,-1.80
2023-03-02T23:13:52.595Z,-1.70
2023-03-02T23:16:26.563Z,-1.60
2023-03-02T23:18:57.658Z,-1.50
2023-03-02T23:21:28.660Z,-1.50
2023-03-02T23:23:56.548Z,-1.40
2023-03-02T23:26:23.784Z,-1.30
2023-03-02T23:28:51.551Z,-1.30
2023-03-02T23:31:18.728Z,-1.20
2023-03-02T23:33:46.839Z,-1.00
2023-03-02T23:36:15.026Z,-0.50
2023-03-02T23:38:42.595Z,0.20
2023-03-02T23:41:10.295Z,0.70
2023-03-02T23:43:37.971Z,1.20
2023-03-02T23:46:05.638Z,1.60
2023-03-02T23:48:34.360Z,1.90
2023-03-02T23:51:01.985Z,2.10
2023-03-02T23:53:29.488Z,2.40
2023-03-02T23:55:56.446Z,2.50
2023-03-02T23:58:24.539Z,2.70
